Terminal Aerodrome Forecast
Issued by NWS Albany, NY

Home | Current Version | Previous Version | Text Only | Print | Product List | Glossary On
Versions: 1 2 3 4 5 6 7 8 9 10 11 12 13 14 15 16 17 18 19 20 21 22 23 24
005
FTUS41 KALY 221617 AAC
TAFGFL
TAF AMD
KGFL 221617Z 2216/2312 20013G19KT P6SM FEW027 SCT250
     FM221700 20010G17KT P6SM SCT025 BKN040
     FM230400 21008KT P6SM VCSH BKN025 OVC040
     FM230900 23008KT P6SM SCT025 OVC040=

USA.gov is the U.S. government's official web portal to all federal, state and local government web resources and services.